Time;durP1;ratioP1;P1;durP2;ratioP2;P2;SDS_P1;SDS_P2;PMS_P1;PMS_P2;Temp;Humidity;BMP_temperature;BMP_pressure;BME280_temperature;BME280_humidity;BME280_pressure;Samples;Min_cycle;Max_cycle;Signal;HPM_P1;HPM_P2
2021/12/02 00:31:47;;;;;;;5.60;0.80;;;3.60;99.90;;;;;;740673;22;20314;-89
2021/12/02 00:34:14;;;;;;;4.22;0.57;;;3.70;99.90;;;;;;4994423;28;20057;-95
2021/12/02 00:36:40;;;;;;;2.15;0.50;;;3.70;99.90;;;;;;4989437;28;20113;-94
2021/12/02 00:39:15;;;;;;;3.10;0.68;;;3.70;99.90;;;;;;4997269;28;20042;-92
2021/12/02 00:41:50;;;;;;;4.60;0.75;;;3.80;99.90;;;;;;4992958;28;20064;-96
2021/12/02 00:44:18;;;;;;;3.72;0.80;;;3.80;99.90;;;;;;4985597;28;20049;-94
2021/12/02 00:46:45;;;;;;;4.80;0.70;;;3.80;99.90;;;;;;4984424;28;20046;-94
2021/12/02 00:49:14;;;;;;;3.72;1.02;;;3.80;99.90;;;;;;5000804;28;20042;-94
2021/12/02 00:51:43;;;;;;;2.97;0.63;;;3.70;99.90;;;;;;5015415;28;20568;-95
2021/12/02 00:54:11;;;;;;;4.60;1.67;;;3.70;99.90;;;;;;4998355;28;20501;-93
2021/12/02 00:56:43;;;;;;;5.65;0.88;;;3.70;99.90;;;;;;4998657;28;20046;-94
2021/12/02 00:59:09;;;;;;;5.13;0.82;;;3.70;99.90;;;;;;4989209;28;20116;-91
2021/12/02 01:01:36;;;;;;;1.75;0.60;;;3.70;99.90;;;;;;5000145;28;20041;-94
2021/12/02 01:04:07;;;;;;;4.95;0.70;;;3.70;99.90;;;;;;4999441;28;20080;-92
2021/12/02 01:06:33;;;;;;;;;;;3.60;99.90;;;;;;4981060;28;20054;-93
2021/12/02 01:08:59;;;;;;;4.68;0.57;;;3.70;99.90;;;;;;4981071;28;19921;-94
2021/12/02 01:11:31;;;;;;;4.13;1.08;;;3.60;99.90;;;;;;5017084;28;20048;-94
2021/12/02 01:13:57;;;;;;;1.63;0.52;;;3.60;99.90;;;;;;4998483;28;20084;-94
2021/12/02 01:16:23;;;;;;;4.15;0.70;;;3.80;99.90;;;;;;5000737;28;20073;-94
2021/12/02 01:18:49;;;;;;;2.25;0.70;;;3.70;99.90;;;;;;4990618;28;20053;-94
2021/12/02 01:21:19;;;;;;;3.10;0.55;;;3.70;99.90;;;;;;4981158;28;20070;-93
2021/12/02 01:23:49;;;;;;;2.72;0.73;;;3.60;99.90;;;;;;4980630;28;20042;-93
2021/12/02 01:26:21;;;;;;;0.95;0.65;;;3.70;99.90;;;;;;4982105;28;20049;-93
2021/12/02 01:28:50;;;;;;;2.97;0.70;;;3.60;99.90;;;;;;5000148;28;20045;-92
2021/12/02 01:31:16;;;;;;;2.45;0.60;;;3.70;99.90;;;;;;5014996;28;20064;-93
2021/12/02 01:33:45;;;;;;;3.53;0.60;;;3.60;99.90;;;;;;5005467;28;20034;-93
2021/12/02 01:36:12;;;;;;;2.70;0.55;;;3.60;99.90;;;;;;4996008;28;20025;-91
2021/12/02 01:38:37;;;;;;;2.92;0.60;;;3.70;99.90;;;;;;5019946;28;20057;-93
2021/12/02 01:41:10;;;;;;;3.30;0.88;;;3.60;99.90;;;;;;5020666;28;20069;-93
2021/12/02 01:43:49;;;;;;;3.25;0.50;;;3.60;99.90;;;;;;5013303;28;20075;-94
2021/12/02 01:46:18;;;;;;;2.72;0.52;;;3.60;99.90;;;;;;5006298;28;20053;-93
2021/12/02 01:48:57;;;;;;;3.88;0.60;;;3.80;99.90;;;;;;4991211;28;20045;-94
2021/12/02 01:51:26;;;;;;;3.83;0.50;;;3.70;99.90;;;;;;4983069;28;20033;-91
2021/12/02 01:54:02;;;;;;;1.38;0.55;;;3.70;99.90;;;;;;4989856;28;20099;-91
2021/12/02 01:56:43;;;;;;;4.55;1.23;;;3.70;99.90;;;;;;4998663;28;20139;-92
2021/12/02 01:59:11;;;;;;;;;;;3.80;99.90;;;;;;4985947;28;20137;-92
2021/12/02 02:01:40;;;;;;;2.67;0.63;;;3.70;99.90;;;;;;4986405;28;19921;-95
2021/12/02 02:04:07;;;;;;;3.03;0.60;;;3.80;99.90;;;;;;5004891;28;20052;-95
2021/12/02 02:06:40;;;;;;;1.88;0.50;;;3.90;99.90;;;;;;4992039;28;20402;-95
2021/12/02 02:09:07;;;;;;;1.70;0.40;;;3.90;99.90;;;;;;4986742;28;20053;-94
2021/12/02 02:11:42;;;;;;;1.13;0.60;;;3.80;99.90;;;;;;5002785;28;20136;-91
2021/12/02 02:14:09;;;;;;;2.47;0.40;;;3.70;99.90;;;;;;5000386;28;20052;-93
2021/12/02 02:16:37;;;;;;;4.45;0.70;;;3.50;99.90;;;;;;5001791;28;20049;-95
2021/12/02 02:19:04;;;;;;;2.45;0.65;;;3.30;99.90;;;;;;4989949;28;20478;-92
2021/12/02 02:21:34;;;;;;;2.65;0.40;;;3.40;99.90;;;;;;4980096;28;20045;-94
2021/12/02 02:24:00;;;;;;;0.80;0.50;;;3.20;99.90;;;;;;4979649;28;20048;-94
2021/12/02 02:26:35;;;;;;;0.65;0.30;;;3.40;99.90;;;;;;4984415;28;20088;-94
2021/12/02 02:29:03;;;;;;;2.38;0.43;;;3.20;99.90;;;;;;4999194;28;20049;-93
2021/12/02 02:31:30;;;;;;;0.88;0.30;;;3.10;99.90;;;;;;5000013;28;20045;-96
2021/12/02 02:33:56;;;;;;;2.17;0.40;;;3.30;99.90;;;;;;4999086;28;20045;-94
2021/12/02 02:36:25;;;;;;;3.80;0.45;;;3.00;99.90;;;;;;4995443;28;20168;-92
2021/12/02 02:38:58;;;;;;;1.08;0.60;;;3.00;99.90;;;;;;4998251;28;20398;-96
2021/12/02 02:41:42;;;;;;;0.95;0.47;;;3.00;99.90;;;;;;4998805;28;20099;-94
2021/12/02 02:44:09;;;;;;;1.85;0.35;;;2.70;99.90;;;;;;5004034;28;20050;-95
2021/12/02 02:46:40;;;;;;;0.90;0.57;;;2.70;99.90;;;;;;4983493;28;20061;-95
2021/12/02 02:49:12;;;;;;;0.38;0.22;;;2.90;99.90;;;;;;4985076;28;20429;-94
2021/12/02 02:51:39;;;;;;;1.25;0.32;;;2.80;99.90;;;;;;4997316;28;20505;-93
2021/12/02 02:54:08;;;;;;;2.53;0.50;;;2.70;99.90;;;;;;4995554;28;20050;-94
2021/12/02 02:56:50;;;;;;;4.28;0.50;;;2.70;99.90;;;;;;4997998;28;20091;-96
2021/12/02 03:04:43;;;;;;;0.88;0.50;;;2.70;99.90;;;;;;5014460;28;20041;-96
2021/12/02 03:07:26;;;;;;;2.10;0.35;;;2.70;99.90;;;;;;4988169;28;20092;-94
2021/12/02 03:10:11;;;;;;;1.95;0.52;;;2.70;99.90;;;;;;4986751;28;20048;-93
2021/12/02 03:13:10;;;;;;;1.33;0.40;;;2.70;99.90;;;;;;5000258;28;20057;-94
2021/12/02 03:18:21;;;;;;;2.47;0.40;;;2.60;99.90;;;;;;5014279;28;20391;-95
2021/12/02 03:20:47;;;;;;;0.98;0.40;;;2.50;99.90;;;;;;4996071;28;20056;-95
2021/12/02 03:23:13;;;;;;;0.50;0.40;;;2.40;99.90;;;;;;4997472;28;20445;-95
2021/12/02 03:25:39;;;;;;;3.75;0.65;;;2.40;99.90;;;;;;5013748;28;20041;-94
2021/12/02 03:28:05;;;;;;;0.47;0.40;;;2.30;99.90;;;;;;4997316;28;20045;-94
2021/12/02 03:30:31;;;;;;;2.72;0.40;;;2.30;99.90;;;;;;4997934;28;20427;-95
2021/12/02 03:32:57;;;;;;;0.30;0.30;;;2.20;99.90;;;;;;4995931;28;20057;-95
2021/12/02 03:35:22;;;;;;;1.38;0.50;;;2.20;99.90;;;;;;4988729;28;20042;-94
2021/12/02 03:37:48;;;;;;;2.28;0.60;;;2.10;99.90;;;;;;4977880;28;20042;-93
2021/12/02 03:40:15;;;;;;;2.60;0.50;;;2.20;99.90;;;;;;4990830;28;20049;-93
2021/12/02 03:42:56;;;;;;;2.85;0.68;;;2.10;99.90;;;;;;4997158;28;20037;-95
2021/12/02 03:45:23;;;;;;;1.33;0.45;;;2.00;99.90;;;;;;4995246;28;20041;-95
2021/12/02 03:47:49;;;;;;;2.20;0.65;;;2.00;99.90;;;;;;4992598;28;20123;-94
2021/12/02 03:50:16;;;;;;;4.25;1.10;;;1.90;99.90;;;;;;4990960;28;20096;-94
2021/12/02 03:52:41;;;;;;;0.75;0.40;;;1.90;99.90;;;;;;4978326;28;20088;-93
2021/12/02 03:55:08;;;;;;;1.95;0.60;;;1.90;99.90;;;;;;4991373;28;20092;-95
2021/12/02 03:57:39;;;;;;;2.58;0.50;;;1.90;99.90;;;;;;4997330;28;20041;-93
2021/12/02 04:00:06;;;;;;;2.55;0.52;;;2.00;99.90;;;;;;4982426;28;20103;-95
2021/12/02 04:02:32;;;;;;;2.08;0.50;;;2.00;99.90;;;;;;4981700;28;20048;-94
2021/12/02 04:04:58;;;;;;;1.80;0.63;;;2.00;99.90;;;;;;5000971;28;20045;-94
2021/12/02 04:07:26;;;;;;;1.35;0.38;;;2.10;99.90;;;;;;4986444;28;20097;-92
2021/12/02 04:09:52;;;;;;;1.80;0.52;;;2.10;99.90;;;;;;4994507;28;20045;-95
2021/12/02 04:12:46;;;;;;;1.08;0.45;;;2.20;99.90;;;;;;4988574;28;20042;-95
2021/12/02 04:15:16;;;;;;;2.40;0.60;;;2.20;99.90;;;;;;4996759;28;20052;-93
2021/12/02 04:17:43;;;;;;;2.95;0.77;;;2.20;99.90;;;;;;5001668;28;20075;-94
2021/12/02 04:20:13;;;;;;;2.17;0.40;;;2.20;99.90;;;;;;4989581;28;20052;-95
2021/12/02 04:22:38;;;;;;;2.47;0.50;;;2.30;99.90;;;;;;4993563;28;20021;-94
2021/12/02 04:25:05;;;;;;;1.23;0.50;;;2.20;99.90;;;;;;5020934;28;20088;-92
2021/12/02 04:27:38;;;;;;;5.20;0.55;;;2.30;99.90;;;;;;5016339;28;20062;-94
2021/12/02 04:30:08;;;;;;;2.72;0.73;;;2.30;99.90;;;;;;5008099;28;20041;-94
2021/12/02 04:32:34;;;;;;;2.70;0.55;;;2.20;99.90;;;;;;5014094;28;20064;-92
2021/12/02 04:35:00;;;;;;;1.10;0.43;;;2.20;99.90;;;;;;5012333;28;20067;-93
2021/12/02 04:37:26;;;;;;;3.75;0.68;;;2.10;99.90;;;;;;5006528;28;20108;-94
2021/12/02 04:39:51;;;;;;;1.10;0.32;;;2.20;99.90;;;;;;4989971;28;20049;-94
2021/12/02 04:42:23;;;;;;;0.98;0.43;;;2.20;99.90;;;;;;4983882;28;20073;-93
2021/12/02 04:44:50;;;;;;;3.95;0.50;;;2.10;99.90;;;;;;4982323;28;20124;-96
2021/12/02 04:47:16;;;;;;;1.75;0.40;;;2.00;99.90;;;;;;4982153;28;20136;-95
2021/12/02 04:49:42;;;;;;;0.50;0.50;;;2.10;99.90;;;;;;4998157;28;20049;-92
2021/12/02 04:52:08;;;;;;;0.80;0.52;;;2.00;99.90;;;;;;5017569;28;20067;-95
2021/12/02 04:54:34;;;;;;;0.98;0.45;;;2.00;99.90;;;;;;5000874;28;20100;-93
2021/12/02 04:57:06;;;;;;;1.85;0.50;;;1.90;99.90;;;;;;5000936;28;20037;-95
2021/12/02 04:59:32;;;;;;;1.48;0.40;;;1.90;99.90;;;;;;4984457;28;20406;-94
2021/12/02 05:01:58;;;;;;;1.05;0.40;;;1.90;99.90;;;;;;4988267;28;20037;-94
2021/12/02 05:04:23;;;;;;;4.13;0.70;;;1.90;99.90;;;;;;5012585;28;20108;-94
2021/12/02 05:06:49;;;;;;;2.28;0.43;;;2.20;99.90;;;;;;5002001;28;20052;-96
2021/12/02 05:09:15;;;;;;;1.50;0.60;;;2.30;99.90;;;;;;5001114;28;20049;-95
2021/12/02 05:11:50;;;;;;;1.90;0.52;;;2.30;99.90;;;;;;4998887;28;20479;-95
2021/12/02 05:14:15;;;;;;;1.38;0.63;;;2.40;99.90;;;;;;4985737;28;20041;-93
2021/12/02 05:16:41;;;;;;;1.15;0.40;;;2.00;99.90;;;;;;4986694;28;20048;-93
2021/12/02 05:19:07;;;;;;;4.75;0.60;;;1.80;99.90;;;;;;5000269;28;20041;-94
2021/12/02 05:21:33;;;;;;;2.22;0.57;;;1.90;99.90;;;;;;5000256;28;20099;-95
2021/12/02 05:23:58;;;;;;;0.95;0.50;;;2.00;99.90;;;;;;4981313;28;20046;-95
2021/12/02 05:26:31;;;;;;;4.90;0.60;;;1.80;99.90;;;;;;4981170;28;20046;-93
2021/12/02 05:28:57;;;;;;;1.77;0.60;;;1.80;99.90;;;;;;4998437;28;20453;-96
2021/12/02 05:31:22;;;;;;;0.73;0.43;;;1.90;99.90;;;;;;4999358;28;20037;-95
2021/12/02 05:33:48;;;;;;;0.57;0.40;;;1.80;99.90;;;;;;4998220;28;20087;-96
2021/12/02 05:36:14;;;;;;;0.30;0.30;;;1.80;99.90;;;;;;4991713;28;20045;-93
2021/12/02 05:38:40;;;;;;;3.08;0.60;;;1.90;99.90;;;;;;4979933;28;20037;-93
2021/12/02 05:41:06;;;;;;;2.50;0.63;;;1.80;99.90;;;;;;4980588;28;20382;-92
2021/12/02 05:43:38;;;;;;;1.00;0.50;;;1.80;99.90;;;;;;4980432;28;20084;-94
2021/12/02 05:46:05;;;;;;;3.95;0.60;;;1.80;99.90;;;;;;4980962;28;20482;-93
2021/12/02 05:48:31;;;;;;;1.60;0.57;;;1.80;99.90;;;;;;4990117;28;20037;-94
2021/12/02 05:50:57;;;;;;;0.40;0.40;;;2.00;99.90;;;;;;4998840;28;20134;-93
2021/12/02 05:53:22;;;;;;;1.20;0.40;;;2.00;99.90;;;;;;5000424;28;20041;-94
2021/12/02 05:55:48;;;;;;;0.93;0.50;;;2.00;99.90;;;;;;4992498;28;20129;-95
2021/12/02 05:58:20;;;;;;;1.13;0.40;;;1.90;99.90;;;;;;4980377;28;20133;-95
2021/12/02 06:00:45;;;;;;;1.98;0.50;;;2.00;99.90;;;;;;4979792;28;20256;-95
2021/12/02 06:03:11;;;;;;;1.30;0.40;;;2.00;99.90;;;;;;4999447;28;20420;-95
2021/12/02 06:05:38;;;;;;;2.08;0.50;;;2.00;99.90;;;;;;4997742;28;20047;-94
2021/12/02 06:08:05;;;;;;;1.27;0.57;;;2.00;99.90;;;;;;4998298;28;20045;-95
2021/12/02 06:10:30;;;;;;;1.65;1.50;;;2.20;99.90;;;;;;4979772;28;20122;-94
2021/12/02 06:13:02;;;;;;;1.27;0.40;;;2.10;99.90;;;;;;4978963;28;20082;-94
2021/12/02 06:15:28;;;;;;;3.15;0.52;;;2.10;99.90;;;;;;4979618;28;20042;-94
2021/12/02 06:17:53;;;;;;;2.40;0.40;;;2.10;99.90;;;;;;4997221;28;20583;-96
2021/12/02 06:20:22;;;;;;;1.60;0.43;;;2.10;99.90;;;;;;4983532;28;20048;-95
2021/12/02 06:22:48;;;;;;;1.30;0.50;;;2.00;99.90;;;;;;4982725;28;20053;-93
2021/12/02 06:28:07;;;;;;;2.47;0.50;;;2.30;99.90;;;;;;4998285;28;20510;-92
2021/12/02 06:30:33;;;;;;;2.15;0.40;;;2.00;99.90;;;;;;4999448;28;20448;-95
2021/12/02 06:32:58;;;;;;;1.55;0.40;;;2.00;99.90;;;;;;4996471;28;20132;-93
2021/12/02 06:35:24;;;;;;;0.93;0.38;;;2.00;99.90;;;;;;4990277;28;20037;-93
2021/12/02 06:37:49;;;;;;;2.78;0.50;;;2.10;99.90;;;;;;5000947;28;20521;-95
2021/12/02 06:40:15;;;;;;;1.85;0.70;;;2.10;99.90;;;;;;4998560;28;20038;-94
2021/12/02 06:42:51;;;;;;;0.32;0.30;;;2.10;99.90;;;;;;4980995;28;20414;-94
2021/12/02 06:45:17;;;;;;;2.17;0.40;;;2.10;99.90;;;;;;4997715;28;20037;-94
2021/12/02 06:47:43;;;;;;;3.40;0.88;;;2.10;99.90;;;;;;4997988;28;20529;-94
2021/12/02 06:50:17;;;;;;;2.10;0.52;;;2.10;99.90;;;;;;4997478;28;20128;-93
2021/12/02 06:52:43;;;;;;;2.53;0.90;;;2.10;99.90;;;;;;4998288;28;20049;-95
2021/12/02 06:55:10;;;;;;;1.25;0.50;;;2.20;99.90;;;;;;4988393;28;20128;-93
2021/12/02 06:57:45;;;;;;;1.58;0.50;;;2.20;99.90;;;;;;4998092;28;20037;-94
2021/12/02 07:00:14;;;;;;;1.00;0.50;;;2.20;99.90;;;;;;4993551;28;20049;-95
2021/12/02 07:02:41;;;;;;;4.47;1.00;;;2.20;99.90;;;;;;4978770;28;20044;-93
2021/12/02 07:05:08;;;;;;;2.13;0.70;;;2.30;99.90;;;;;;4982622;28;20046;-93
2021/12/02 07:07:37;;;;;;;1.23;0.50;;;2.30;99.90;;;;;;4986389;28;20106;-94
2021/12/02 07:10:05;;;;;;;0.50;0.50;;;2.30;99.90;;;;;;5021494;28;20080;-91
2021/12/02 07:12:40;;;;;;;0.45;0.40;;;2.40;99.90;;;;;;5013641;28;20038;-94
2021/12/02 07:18:10;;;;;;;1.85;0.70;;;2.40;99.90;;;;;;5012883;28;20049;-94
2021/12/02 07:20:35;;;;;;;0.98;0.50;;;2.30;99.90;;;;;;4988189;28;20068;-93
2021/12/02 07:23:02;;;;;;;1.48;0.73;;;2.30;99.90;;;;;;5005943;28;20046;-93
2021/12/02 07:25:28;;;;;;;4.22;1.88;;;2.30;99.90;;;;;;4997105;28;20060;-92
2021/12/02 07:27:54;;;;;;;3.03;0.60;;;2.30;99.90;;;;;;4996656;28;20049;-92
2021/12/02 07:30:20;;;;;;;0.95;0.60;;;2.30;99.90;;;;;;4988018;28;20115;-93
2021/12/02 07:32:51;;;;;;;1.48;0.73;;;2.40;99.90;;;;;;5013824;28;20388;-92
2021/12/02 07:35:17;;;;;;;1.95;0.70;;;2.40;99.90;;;;;;5011267;28;20375;-96
2021/12/02 07:37:45;;;;;;;1.63;0.50;;;2.50;99.90;;;;;;4997003;28;20048;-93
2021/12/02 07:40:13;;;;;;;1.92;0.60;;;2.40;99.90;;;;;;4990716;28;20081;-93
2021/12/02 07:42:38;;;;;;;1.70;0.70;;;2.50;99.90;;;;;;4999048;28;20076;-94
2021/12/02 07:45:08;;;;;;;2.53;0.90;;;2.50;99.90;;;;;;4995551;28;20089;-92
2021/12/02 07:47:37;;;;;;;1.00;0.50;;;2.50;99.90;;;;;;4992977;28;20045;-94
2021/12/02 07:50:04;;;;;;;1.30;0.60;;;2.60;99.90;;;;;;4990351;28;20050;-92
2021/12/02 07:52:33;;;;;;;2.83;0.45;;;2.60;99.90;;;;;;4984311;28;20037;-94
2021/12/02 07:55:06;;;;;;;1.23;0.50;;;2.50;99.90;;;;;;4988171;28;20042;-94
2021/12/02 07:57:45;;;;;;;1.27;0.68;;;2.50;99.90;;;;;;4976865;28;20042;-93
2021/12/02 08:00:17;;;;;;;1.30;0.60;;;2.70;99.90;;;;;;4995777;28;20057;-95
2021/12/02 08:02:51;;;;;;;1.38;0.77;;;2.50;99.90;;;;;;5003196;28;20458;-95
2021/12/02 08:05:21;;;;;;;1.75;0.77;;;2.50;99.90;;;;;;4984513;28;20041;-95
2021/12/02 08:07:47;;;;;;;2.70;0.80;;;2.50;99.90;;;;;;4986130;28;20045;-95
2021/12/02 08:10:14;;;;;;;2.42;0.80;;;2.50;99.90;;;;;;4999607;28;20056;-93
2021/12/02 08:12:48;;;;;;;1.00;0.60;;;2.70;99.90;;;;;;5015701;28;20068;-94
2021/12/02 08:15:18;;;;;;;2.55;0.88;;;2.50;99.90;;;;;;4992023;28;20061;-93
2021/12/02 08:17:44;;;;;;;3.75;1.10;;;2.50;99.90;;;;;;4978419;28;20075;-93
2021/12/02 08:20:10;;;;;;;2.92;1.05;;;2.60;99.90;;;;;;4994461;28;20176;-95
2021/12/02 08:22:35;;;;;;;4.13;1.30;;;2.50;99.90;;;;;;4996457;28;20084;-93
2021/12/02 08:25:02;;;;;;;7.57;3.00;;;2.50;99.90;;;;;;4997108;28;20397;-94
2021/12/02 08:27:28;;;;;;;1.63;0.80;;;2.70;99.90;;;;;;4998203;28;20053;-94
2021/12/02 08:29:53;;;;;;;2.58;1.10;;;2.60;99.90;;;;;;4999430;28;20417;-94
2021/12/02 08:32:19;;;;;;;3.15;1.10;;;2.60;99.90;;;;;;4998485;28;20165;-95
2021/12/02 08:34:45;;;;;;;2.22;0.90;;;2.60;99.90;;;;;;5003851;28;20072;-94
2021/12/02 08:37:11;;;;;;;2.33;1.08;;;2.60;99.90;;;;;;5000962;28;20206;-94
2021/12/02 08:39:37;;;;;;;2.70;0.98;;;2.70;99.90;;;;;;4997301;28;20041;-96
2021/12/02 08:42:16;;;;;;;4.90;0.95;;;2.80;99.90;;;;;;5014861;28;20041;-96
2021/12/02 08:44:43;;;;;;;1.88;0.75;;;2.80;99.90;;;;;;5015444;28;20054;-94
2021/12/02 08:47:09;;;;;;;2.63;1.00;;;2.80;99.90;;;;;;4996584;28;20120;-94
2021/12/02 08:49:35;;;;;;;1.98;0.95;;;2.90;99.90;;;;;;5013035;28;20045;-95
2021/12/02 08:52:01;;;;;;;5.55;1.40;;;2.90;99.90;;;;;;4989384;28;20141;-94
2021/12/02 08:54:26;;;;;;;2.88;0.90;;;2.80;99.90;;;;;;5001669;28;20417;-93
2021/12/02 08:56:54;;;;;;;6.32;0.90;;;2.80;99.90;;;;;;5002275;28;20064;-93
2021/12/02 08:59:20;;;;;;;1.65;0.80;;;2.80;99.90;;;;;;4989902;28;20042;-96
2021/12/02 09:01:47;;;;;;;2.08;0.95;;;2.70;99.90;;;;;;4981088;28;20086;-95
2021/12/02 09:04:13;;;;;;;4.80;0.95;;;2.70;99.90;;;;;;4996613;28;20477;-93
2021/12/02 09:06:38;;;;;;;1.40;0.70;;;2.60;99.90;;;;;;4999865;28;20045;-94
2021/12/02 09:09:04;;;;;;;4.40;1.00;;;2.60;99.90;;;;;;4985955;28;20044;-94
2021/12/02 09:11:31;;;;;;;3.47;1.13;;;2.60;99.90;;;;;;4983550;28;20049;-94
2021/12/02 09:13:58;;;;;;;3.10;1.23;;;2.70;99.90;;;;;;4995366;28;20045;-95
2021/12/02 09:16:25;;;;;;;5.00;1.33;;;2.80;99.90;;;;;;5014101;28;20046;-94
2021/12/02 09:18:51;;;;;;;2.75;0.77;;;2.60;99.90;;;;;;5000294;28;20037;-95
2021/12/02 09:21:18;;;;;;;3.60;0.93;;;2.70;99.90;;;;;;4999556;28;20486;-95
2021/12/02 09:23:43;;;;;;;2.33;0.82;;;2.80;99.90;;;;;;5000905;28;20041;-95
2021/12/02 09:26:09;;;;;;;1.95;0.80;;;2.70;99.90;;;;;;5001582;28;20072;-96
2021/12/02 09:28:35;;;;;;;2.38;1.00;;;2.90;99.90;;;;;;4997308;28;20033;-95
2021/12/02 09:31:00;;;;;;;2.53;0.98;;;2.80;99.90;;;;;;4995417;28;20060;-94
2021/12/02 09:33:26;;;;;;;4.97;1.02;;;2.80;99.90;;;;;;4981669;28;20052;-96
2021/12/02 09:35:52;;;;;;;2.58;0.90;;;2.90;99.90;;;;;;5005642;28;20120;-96
2021/12/02 09:38:18;;;;;;;1.83;0.93;;;2.90;99.90;;;;;;5010514;28;20147;-96
2021/12/02 09:40:44;;;;;;;6.93;1.10;;;3.00;99.90;;;;;;5004956;28;20046;-95
2021/12/02 09:43:20;;;;;;;2.20;1.00;;;3.00;99.90;;;;;;5019365;28;20041;-95
2021/12/02 09:51:36;;;;;;;1.42;0.70;;;3.30;99.90;;;;;;5234893;22;19921;-95
2021/12/02 10:25:58;;;;;;;3.42;0.90;;;4.10;99.90;;;;;;5333584;22;20049;-96
2021/12/02 10:31:05;;;;;;;4.22;0.88;;;4.20;99.90;;;;;;5094692;22;20071;-96
2021/12/02 10:39:12;;;;;;;1.95;0.57;;;4.50;99.90;;;;;;5012075;28;20066;-96
2021/12/02 10:41:42;;;;;;;4.72;2.05;;;4.50;99.90;;;;;;4976844;28;20052;-95
2021/12/02 10:44:28;;;;;;;5.22;1.45;;;4.50;99.90;;;;;;5002257;28;20049;-92
2021/12/02 10:47:06;;;;;;;2.00;0.70;;;4.50;99.90;;;;;;4996855;28;20538;-95
2021/12/02 10:49:42;;;;;;;3.85;0.93;;;4.40;99.90;;;;;;5005026;28;20033;-95
2021/12/02 10:57:44;;;;;;;4.03;0.60;;;4.50;99.90;;;;;;5101934;22;20503;-96
2021/12/02 11:00:18;;;;;;;0.45;0.30;;;4.40;99.90;;;;;;4970875;28;20065;-94
2021/12/02 11:02:54;;;;;;;0.40;0.40;;;4.10;99.90;;;;;;4987405;28;20041;-96
2021/12/02 11:05:34;;;;;;;1.17;0.50;;;3.80;99.90;;;;;;5003909;28;20132;-90
2021/12/02 11:08:08;;;;;;;1.45;0.52;;;3.20;99.90;;;;;;4994617;28;20038;-96
2021/12/02 11:10:39;;;;;;;0.22;0.22;;;2.90;99.90;;;;;;5032794;23;20038;-96
2021/12/02 11:13:36;;;;;;;2.28;0.80;;;2.50;99.90;;;;;;4980174;28;20044;-96
2021/12/02 11:16:04;;;;;;;1.30;0.40;;;2.60;99.90;;;;;;5309952;23;20042;-92
2021/12/02 11:18:34;;;;;;;0.50;0.50;;;2.50;99.90;;;;;;4983696;28;20057;-95
2021/12/02 11:21:00;;;;;;;0.70;0.40;;;2.40;99.90;;;;;;4993321;28;20045;-96
2021/12/02 11:23:52;;;;;;;0.30;0.30;;;2.50;99.90;;;;;;4987975;28;20642;-96
2021/12/02 12:38:32;;;;;;;1.38;0.70;;;3.00;99.90;;;;;;4967406;28;19987;-92
2021/12/02 12:41:01;;;;;;;0.68;0.40;;;3.00;99.90;;;;;;4929341;29;20054;-91
2021/12/02 12:43:49;;;;;;;1.10;0.60;;;3.20;99.90;;;;;;4941015;28;20400;-91
2021/12/02 12:46:22;;;;;;;1.45;0.63;;;2.90;99.90;;;;;;4944905;28;20411;-90
2021/12/02 12:48:49;;;;;;;3.38;0.70;;;2.80;99.90;;;;;;4943843;28;20043;-91
2021/12/02 12:51:19;;;;;;;0.47;0.43;;;2.80;99.90;;;;;;4939846;28;20047;-91
2021/12/02 12:53:48;;;;;;;3.63;0.52;;;2.70;99.90;;;;;;4959253;28;20039;-92
2021/12/02 12:56:15;;;;;;;1.38;0.60;;;2.70;99.90;;;;;;4927670;29;20047;-92
2021/12/02 12:59:03;;;;;;;4.15;1.30;;;2.60;99.90;;;;;;4927536;28;20043;-92
2021/12/02 13:01:29;;;;;;;2.72;0.80;;;2.80;99.90;;;;;;4927371;29;20104;-91
2021/12/02 13:04:19;;;;;;;1.98;0.60;;;2.70;99.90;;;;;;4926911;28;20062;-91
2021/12/02 13:06:49;;;;;;;1.42;0.43;;;2.70;99.90;;;;;;4927345;29;20412;-90
2021/12/02 13:09:35;;;;;;;0.80;0.50;;;2.70;99.90;;;;;;4935899;28;20029;-92
2021/12/02 13:12:03;;;;;;;2.88;0.88;;;2.70;99.90;;;;;;4964891;28;20106;-95
2021/12/02 13:14:37;;;;;;;1.95;0.65;;;2.80;99.90;;;;;;4975227;28;20110;-95
2021/12/02 13:17:36;;;;;;;1.48;0.75;;;2.80;99.90;;;;;;4960727;28;20019;-93
2021/12/02 13:20:16;;;;;;;1.75;0.50;;;2.90;99.90;;;;;;4921835;29;20062;-95
2021/12/02 13:22:44;;;;;;;0.95;0.55;;;3.00;99.90;;;;;;4962459;28;20070;-96
2021/12/02 13:25:27;;;;;;;2.28;0.52;;;3.00;99.90;;;;;;4975031;28;20054;-95
2021/12/02 13:27:53;;;;;;;3.15;0.95;;;2.90;99.90;;;;;;4968001;28;20057;-94
2021/12/02 13:30:28;;;;;;;0.50;0.40;;;2.90;99.90;;;;;;4942988;29;20602;-94
2021/12/02 13:32:57;;;;;;;0.40;0.40;;;2.80;99.90;;;;;;4930747;28;20065;-95
2021/12/02 13:35:25;;;;;;;0.95;0.40;;;2.80;99.90;;;;;;4951792;28;20046;-91
2021/12/02 13:38:05;;;;;;;0.65;0.35;;;2.80;99.90;;;;;;4956797;28;20050;-90
2021/12/02 13:40:35;;;;;;;2.03;0.90;;;2.90;99.90;;;;;;4942209;28;20043;-91
2021/12/02 13:43:00;;;;;;;0.32;0.30;;;2.90;99.90;;;;;;4943397;28;20054;-89
2021/12/02 13:45:30;;;;;;;0.73;0.40;;;2.80;99.90;;;;;;4943738;28;20039;-90
2021/12/02 13:48:16;;;;;;;6.13;0.88;;;2.70;99.90;;;;;;4958409;28;20117;-91
2021/12/02 13:50:48;;;;;;;0.40;0.40;;;2.70;99.90;;;;;;4978189;28;20403;-92
2021/12/02 13:53:14;;;;;;;0.73;0.52;;;2.60;99.90;;;;;;4958516;28;20043;-91
2021/12/02 13:55:42;;;;;;;1.92;0.90;;;2.60;99.90;;;;;;4961847;28;20135;-93
2021/12/02 13:58:17;;;;;;;1.33;0.65;;;2.60;99.90;;;;;;4960780;28;20058;-92
2021/12/02 14:00:59;;;;;;;0.90;0.63;;;2.60;99.90;;;;;;4955867;28;20316;-92
2021/12/02 14:03:25;;;;;;;1.20;0.50;;;2.60;99.90;;;;;;4948374;28;20038;-92
2021/12/02 14:05:57;;;;;;;1.25;0.65;;;2.50;99.90;;;;;;4944193;28;20082;-91
2021/12/02 14:08:25;;;;;;;3.30;1.10;;;2.50;99.90;;;;;;4976685;28;20102;-92
2021/12/02 14:10:52;;;;;;;2.25;1.00;;;2.50;99.90;;;;;;4958771;28;20038;-91
2021/12/02 14:13:31;;;;;;;2.55;1.10;;;2.50;99.90;;;;;;4961158;28;20046;-91
2021/12/02 14:16:06;;;;;;;2.70;1.00;;;2.50;99.90;;;;;;4960738;28;20050;-92
2021/12/02 14:18:35;;;;;;;2.05;0.70;;;2.40;99.90;;;;;;4975334;28;20038;-93
2021/12/02 14:21:10;;;;;;;0.85;0.52;;;2.50;99.90;;;;;;4953914;28;20047;-93
2021/12/02 14:23:38;;;;;;;1.55;0.68;;;2.40;99.90;;;;;;4950733;28;20106;-94
2021/12/02 14:26:11;;;;;;;0.63;0.50;;;2.40;99.90;;;;;;4959589;28;20057;-93
2021/12/02 14:28:54;;;;;;;9.15;2.55;;;2.40;99.90;;;;;;4959130;28;20042;-93
2021/12/02 14:31:23;;;;;;;6.22;1.52;;;2.40;99.90;;;;;;4977996;28;20034;-94
2021/12/02 14:33:51;;;;;;;1.67;0.82;;;2.40;99.90;;;;;;4961025;28;20105;-93
2021/12/02 14:36:21;;;;;;;6.13;2.03;;;2.40;99.90;;;;;;4954264;28;20096;-91
2021/12/02 14:39:00;;;;;;;6.13;2.60;;;2.40;99.90;;;;;;4947659;28;20046;-92
2021/12/02 14:41:32;;;;;;;3.60;1.42;;;2.30;99.90;;;;;;4960344;28;20045;-93
2021/12/02 14:44:11;;;;;;;5.03;1.77;;;2.30;99.90;;;;;;4946806;28;20043;-93
2021/12/02 14:46:49;;;;;;;3.95;1.42;;;2.60;99.90;;;;;;4957129;28;20046;-95
2021/12/02 14:49:41;;;;;;;8.63;2.75;;;2.30;99.90;;;;;;4975147;28;20051;-94
2021/12/02 14:52:11;;;;;;;6.95;2.10;;;2.20;99.90;;;;;;4960568;28;20507;-94
2021/12/02 14:54:47;;;;;;;8.53;2.17;;;2.20;99.90;;;;;;4945954;28;20069;-91
2021/12/02 14:57:12;;;;;;;5.57;1.60;;;2.10;99.90;;;;;;4955565;28;20051;-90
2021/12/02 14:59:45;;;;;;;4.80;1.77;;;2.10;99.90;;;;;;4971788;28;20213;-89
2021/12/02 15:02:30;;;;;;;4.50;1.48;;;2.20;99.90;;;;;;4975132;28;20046;-92
2021/12/02 15:05:00;;;;;;;4.60;1.60;;;2.00;99.90;;;;;;4957840;28;20047;-91
2021/12/02 15:07:31;;;;;;;5.03;2.05;;;2.00;99.90;;;;;;4945100;28;20043;-90
2021/12/02 15:10:17;;;;;;;4.72;1.90;;;2.00;99.90;;;;;;4957171;28;20038;-92
2021/12/02 15:12:42;;;;;;;3.80;1.42;;;1.90;99.90;;;;;;4946885;28;20046;-88
2021/12/02 15:15:11;;;;;;;3.88;1.33;;;1.90;99.90;;;;;;4946402;28;20093;-92
2021/12/02 15:17:46;;;;;;;3.90;1.30;;;1.90;99.90;;;;;;4941880;28;20638;-91
2021/12/02 15:20:22;;;;;;;2.42;1.05;;;1.80;99.90;;;;;;4955402;28;20093;-93
2021/12/02 15:22:56;;;;;;;2.95;0.73;;;1.80;99.90;;;;;;4939217;28;20055;-90
2021/12/02 15:25:33;;;;;;;1.65;0.98;;;1.70;99.90;;;;;;4939848;28;20082;-91
2021/12/02 15:28:23;;;;;;;1.08;0.70;;;1.70;99.90;;;;;;4938443;28;20554;-93
2021/12/02 15:31:27;;;;;;;3.60;0.90;;;1.60;99.90;;;;;;4962928;28;20051;-94
2021/12/02 15:33:54;;;;;;;2.63;0.98;;;1.60;99.90;;;;;;4953604;28;20338;-92
2021/12/02 15:36:29;;;;;;;1.70;0.82;;;1.60;99.90;;;;;;4948491;28;20051;-94
2021/12/02 15:38:56;;;;;;;4.93;1.63;;;1.50;99.90;;;;;;4939310;28;20047;-92
2021/12/02 15:41:25;;;;;;;5.22;1.48;;;1.50;99.90;;;;;;4964848;28;20217;-94
2021/12/02 15:44:09;;;;;;;8.77;1.25;;;1.50;99.90;;;;;;4957709;28;20154;-93
2021/12/02 15:46:40;;;;;;;6.40;1.55;;;1.40;99.90;;;;;;4954264;28;20300;-93
2021/12/02 15:49:07;;;;;;;7.60;1.33;;;1.40;99.90;;;;;;4973609;28;20077;-90
2021/12/02 15:51:35;;;;;;;9.07;1.95;;;1.40;99.90;;;;;;4952838;28;20034;-91
2021/12/02 15:54:03;;;;;;;7.30;2.38;;;1.40;99.90;;;;;;4953940;28;20051;-91
2021/12/02 15:56:29;;;;;;;6.80;2.30;;;1.30;99.90;;;;;;4955052;28;20049;-91
2021/12/02 15:59:04;;;;;;;10.02;3.53;;;1.30;99.90;;;;;;4946103;28;20051;-94
2021/12/02 16:01:37;;;;;;;7.13;2.80;;;1.40;99.90;;;;;;4972064;28;20084;-95